Time;durP1;ratioP1;P1;durP2;ratioP2;P2;SDS_P1;SDS_P2;PMS_P1;PMS_P2;Temp;Humidity;BMP_temperature;BMP_pressure;BME280_temperature;BME280_humidity;BME280_pressure;Samples;Min_cycle;Max_cycle;Signal;HPM_P1;HPM_P2
2024/01/30 00:00:29;;;;;;;10.37;5.00;;;;;;;;;;4974204;28;20257;-71
2024/01/30 00:02:54;;;;;;;8.13;4.40;;;;;;;;;;4983307;28;20731;-71
2024/01/30 00:05:19;;;;;;;9.00;4.67;;;;;;;;;;4980202;28;20315;-72
2024/01/30 00:07:45;;;;;;;9.13;4.73;;;;;;;;;;4980771;28;20313;-72
2024/01/30 00:10:10;;;;;;;10.53;4.73;;;;;;;;;;4967828;28;20231;-72
2024/01/30 00:12:35;;;;;;;9.30;4.60;;;;;;;;;;4982229;28;20306;-71
2024/01/30 00:15:01;;;;;;;9.13;4.70;;;;;;;;;;4978095;28;20348;-70
2024/01/30 00:17:26;;;;;;;8.90;4.70;;;;;;;;;;4978446;28;20330;-72
2024/01/30 00:19:51;;;;;;;9.07;4.87;;;;;;;;;;4981894;28;20231;-72
2024/01/30 00:22:17;;;;;;;8.97;4.67;;;;;;;;;;4975054;28;20224;-71
2024/01/30 00:24:42;;;;;;;8.40;4.70;;;;;;;;;;4975165;28;20735;-71
2024/01/30 00:27:08;;;;;;;10.03;4.40;;;;;;;;;;4976766;28;20231;-72
2024/01/30 00:29:33;;;;;;;10.10;4.90;;;;;;;;;;4978223;28;20348;-72
2024/01/30 00:31:59;;;;;;;9.93;4.43;;;;;;;;;;4987452;28;20255;-72
2024/01/30 00:34:24;;;;;;;9.27;4.43;;;;;;;;;;4961796;28;20306;-72
2024/01/30 00:36:49;;;;;;;10.60;4.60;;;;;;;;;;4976228;28;20231;-72
2024/01/30 00:39:15;;;;;;;9.77;5.07;;;;;;;;;;4980266;28;20234;-70
2024/01/30 00:41:41;;;;;;;57.90;22.83;;;;;;;;;;4961069;28;20230;-71
2024/01/30 00:44:06;;;;;;;34.03;13.70;;;;;;;;;;4979231;28;20277;-70
2024/01/30 00:46:31;;;;;;;19.30;9.33;;;;;;;;;;4966462;28;20223;-71
2024/01/30 00:48:57;;;;;;;16.83;7.73;;;;;;;;;;4982588;28;20243;-72
2024/01/30 00:51:22;;;;;;;17.50;8.70;;;;;;;;;;4979279;28;20708;-71
2024/01/30 00:53:47;;;;;;;21.17;8.90;;;;;;;;;;4980719;28;20941;-71
2024/01/30 00:56:13;;;;;;;13.17;6.43;;;;;;;;;;4967539;28;20220;-71
2024/01/30 00:58:39;;;;;;;10.73;5.43;;;;;;;;;;4975739;28;20235;-71
2024/01/30 01:01:04;;;;;;;10.57;5.27;;;;;;;;;;4986688;28;20318;-71
2024/01/30 01:03:29;;;;;;;12.90;6.97;;;;;;;;;;4979588;28;20231;-70
2024/01/30 01:05:55;;;;;;;10.97;5.03;;;;;;;;;;4970141;28;20220;-72
2024/01/30 01:08:20;;;;;;;10.10;5.00;;;;;;;;;;4982180;28;20266;-71
2024/01/30 01:10:45;;;;;;;8.67;4.37;;;;;;;;;;4981738;28;20219;-73
2024/01/30 01:13:11;;;;;;;9.73;4.83;;;;;;;;;;4996751;28;20316;-71
2024/01/30 01:15:37;;;;;;;10.23;4.90;;;;;;;;;;4981313;28;20286;-71
2024/01/30 01:18:02;;;;;;;11.63;4.73;;;;;;;;;;4940139;28;1206128;-70
2024/01/30 01:20:28;;;;;;;9.40;4.77;;;;;;;;;;4982831;28;21490;-71
2024/01/30 01:22:53;;;;;;;10.27;4.80;;;;;;;;;;4988490;28;20295;-72
2024/01/30 01:25:19;;;;;;;10.73;4.27;;;;;;;;;;5001717;28;20248;-72
2024/01/30 01:27:51;;;;;;;9.33;4.47;;;;;;;;;;4981149;28;20718;-71
2024/01/30 01:30:21;;;;;;;9.50;4.40;;;;;;;;;;4982559;28;20219;-72
2024/01/30 01:32:54;;;;;;;8.53;4.60;;;;;;;;;;4981668;28;20243;-72
2024/01/30 01:35:20;;;;;;;9.07;4.60;;;;;;;;;;4983113;28;20709;-72
2024/01/30 01:37:46;;;;;;;8.27;4.33;;;;;;;;;;4984918;28;20278;-72
2024/01/30 01:40:11;;;;;;;9.17;4.53;;;;;;;;;;4996103;28;20223;-72
2024/01/30 01:42:37;;;;;;;8.97;4.60;;;;;;;;;;4981999;28;20227;-72
2024/01/30 01:45:02;;;;;;;8.63;4.73;;;;;;;;;;4982437;28;20240;-76
2024/01/30 01:47:27;;;;;;;8.50;4.50;;;;;;;;;;4978561;28;21499;-76
2024/01/30 01:49:53;;;;;;;9.17;4.70;;;;;;;;;;4983299;28;20867;-76
2024/01/30 01:52:18;;;;;;;8.20;4.30;;;;;;;;;;4984214;28;20284;-75
2024/01/30 01:54:44;;;;;;;9.53;4.70;;;;;;;;;;4984298;28;20774;-76
2024/01/30 01:57:09;;;;;;;10.13;4.60;;;;;;;;;;4983249;28;20243;-74
2024/01/30 01:59:34;;;;;;;9.00;4.70;;;;;;;;;;4985373;28;20930;-76
2024/01/30 02:02:00;;;;;;;7.90;4.43;;;;;;;;;;4981270;28;20421;-76
2024/01/30 02:04:25;;;;;;;13.93;4.67;;;;;;;;;;4981763;28;20239;-75
2024/01/30 02:06:50;;;;;;;9.00;4.70;;;;;;;;;;4969718;28;20228;-77
2024/01/30 02:09:16;;;;;;;9.17;4.67;;;;;;;;;;4980283;28;20297;-75
2024/01/30 02:11:41;;;;;;;8.40;4.83;;;;;;;;;;4982331;28;20322;-75
2024/01/30 02:14:06;;;;;;;8.60;4.53;;;;;;;;;;4983098;28;20298;-75
2024/01/30 02:16:32;;;;;;;8.40;4.50;;;;;;;;;;4981755;28;20239;-76
2024/01/30 02:18:57;;;;;;;9.20;4.67;;;;;;;;;;4967950;28;20269;-76
2024/01/30 02:21:22;;;;;;;9.10;4.90;;;;;;;;;;4970502;28;20231;-76
2024/01/30 02:23:48;;;;;;;9.07;4.43;;;;;;;;;;4984494;28;20222;-76
2024/01/30 02:26:13;;;;;;;9.77;4.73;;;;;;;;;;4983954;28;20223;-72
2024/01/30 02:28:39;;;;;;;8.97;4.33;;;;;;;;;;4982054;28;20763;-72
2024/01/30 02:31:04;;;;;;;7.93;4.00;;;;;;;;;;4964299;28;20227;-72
2024/01/30 02:33:29;;;;;;;7.87;3.87;;;;;;;;;;4986533;28;20227;-71
2024/01/30 02:35:55;;;;;;;8.43;4.30;;;;;;;;;;4984663;28;20708;-70
2024/01/30 02:38:20;;;;;;;7.87;4.20;;;;;;;;;;4976341;28;20239;-71
2024/01/30 02:40:45;;;;;;;8.10;4.40;;;;;;;;;;4979468;28;20315;-70
2024/01/30 02:43:11;;;;;;;7.87;4.20;;;;;;;;;;4984939;28;20223;-70
2024/01/30 02:45:36;;;;;;;9.13;4.20;;;;;;;;;;4979690;28;20374;-71
2024/01/30 02:48:01;;;;;;;8.70;4.37;;;;;;;;;;4984082;28;20333;-71
2024/01/30 02:50:27;;;;;;;10.33;5.43;;;;;;;;;;4983561;28;20224;-71
2024/01/30 02:52:52;;;;;;;9.43;4.10;;;;;;;;;;4980865;28;20231;-70
2024/01/30 02:55:18;;;;;;;8.37;4.23;;;;;;;;;;4978205;28;20223;-71
2024/01/30 02:57:43;;;;;;;7.13;3.83;;;;;;;;;;4971225;28;20230;-72
2024/01/30 03:00:09;;;;;;;11.43;5.33;;;;;;;;;;4981125;28;20224;-73
2024/01/30 03:02:35;;;;;;;6.80;3.90;;;;;;;;;;4971367;28;20290;-72
2024/01/30 03:05:00;;;;;;;6.90;3.87;;;;;;;;;;4979415;28;20232;-70
2024/01/30 03:07:25;;;;;;;8.20;3.90;;;;;;;;;;4980753;28;20219;-72
2024/01/30 03:09:51;;;;;;;9.33;4.17;;;;;;;;;;4979112;28;20227;-71
2024/01/30 03:12:16;;;;;;;19.97;7.23;;;;;;;;;;4995119;28;20889;-70
2024/01/30 03:14:41;;;;;;;20.43;7.57;;;;;;;;;;4981325;28;20227;-71
2024/01/30 03:17:07;;;;;;;14.83;6.30;;;;;;;;;;4984449;28;20247;-71
2024/01/30 03:19:33;;;;;;;8.77;4.20;;;;;;;;;;4980192;28;20227;-71
2024/01/30 03:21:58;;;;;;;7.50;3.93;;;;;;;;;;4980555;28;20599;-71
2024/01/30 03:24:23;;;;;;;8.33;4.07;;;;;;;;;;4983068;28;20716;-71
2024/01/30 03:26:49;;;;;;;6.40;3.60;;;;;;;;;;4982650;28;20322;-71
2024/01/30 03:29:15;;;;;;;7.73;3.70;;;;;;;;;;4962447;28;20335;-71
2024/01/30 03:31:40;;;;;;;6.30;3.60;;;;;;;;;;4984063;28;20242;-71
2024/01/30 03:34:06;;;;;;;7.63;3.50;;;;;;;;;;4982238;28;20228;-71
2024/01/30 03:36:33;;;;;;;6.93;3.73;;;;;;;;;;4985291;28;20242;-72
2024/01/30 03:38:59;;;;;;;8.03;4.00;;;;;;;;;;4978810;28;20239;-71
2024/01/30 03:41:24;;;;;;;6.30;3.40;;;;;;;;;;4983849;28;20234;-75
2024/01/30 03:43:49;;;;;;;8.63;3.77;;;;;;;;;;4997382;28;20263;-75
2024/01/30 03:46:15;;;;;;;7.33;3.80;;;;;;;;;;4963560;28;20228;-76
2024/01/30 03:48:40;;;;;;;7.60;3.40;;;;;;;;;;4978521;28;20258;-76
2024/01/30 03:51:05;;;;;;;9.20;3.50;;;;;;;;;;4984313;28;20248;-76
2024/01/30 03:53:31;;;;;;;5.00;3.03;;;;;;;;;;4983103;28;20258;-77
2024/01/30 03:55:56;;;;;;;6.40;3.23;;;;;;;;;;4999269;28;20578;-76
2024/01/30 03:58:21;;;;;;;6.73;3.20;;;;;;;;;;4979233;28;20622;-76
2024/01/30 04:00:47;;;;;;;7.37;3.80;;;;;;;;;;4978581;28;20343;-76
2024/01/30 04:03:12;;;;;;;5.27;3.00;;;;;;;;;;4980800;28;20231;-76
2024/01/30 04:05:37;;;;;;;5.97;3.30;;;;;;;;;;4999812;28;20227;-77
2024/01/30 04:08:03;;;;;;;6.67;3.47;;;;;;;;;;4983417;28;20235;-76
2024/01/30 04:10:28;;;;;;;6.73;3.27;;;;;;;;;;4982288;28;20238;-77
2024/01/30 04:12:54;;;;;;;7.07;3.70;;;;;;;;;;4998144;28;20247;-78
2024/01/30 04:15:19;;;;;;;7.57;3.90;;;;;;;;;;4981251;28;20223;-76
2024/01/30 04:17:44;;;;;;;6.63;3.50;;;;;;;;;;4983907;28;20902;-72
2024/01/30 04:20:18;;;;;;;6.37;3.50;;;;;;;;;;4996822;28;20293;-72
2024/01/30 04:22:44;;;;;;;6.57;3.43;;;;;;;;;;4981030;28;20280;-72
2024/01/30 04:25:09;;;;;;;6.67;3.50;;;;;;;;;;4997030;28;20700;-77
2024/01/30 04:27:35;;;;;;;5.73;3.50;;;;;;;;;;4965001;28;20334;-72
2024/01/30 04:30:00;;;;;;;7.80;3.50;;;;;;;;;;4968797;28;20235;-72
2024/01/30 04:32:26;;;;;;;7.00;3.70;;;;;;;;;;4983372;28;20700;-71
2024/01/30 04:34:51;;;;;;;9.60;3.77;;;;;;;;;;4976951;28;20228;-71
2024/01/30 04:37:16;;;;;;;8.73;4.10;;;;;;;;;;4969905;28;21136;-72
2024/01/30 04:39:42;;;;;;;6.43;3.63;;;;;;;;;;4983468;28;20736;-71
2024/01/30 04:42:07;;;;;;;7.30;3.87;;;;;;;;;;4984839;28;20241;-71
2024/01/30 04:44:32;;;;;;;10.13;4.10;;;;;;;;;;4978245;28;20311;-72
2024/01/30 04:47:01;;;;;;;9.73;4.27;;;;;;;;;;4977639;28;20238;-71
2024/01/30 04:49:26;;;;;;;7.97;4.23;;;;;;;;;;4974073;28;20240;-71
2024/01/30 04:51:52;;;;;;;9.30;4.30;;;;;;;;;;4977319;28;20281;-71
2024/01/30 04:54:17;;;;;;;10.50;4.53;;;;;;;;;;4982026;28;20252;-72
2024/01/30 04:56:42;;;;;;;9.27;4.30;;;;;;;;;;4993557;28;20236;-72
2024/01/30 04:59:08;;;;;;;9.53;4.40;;;;;;;;;;4980588;28;20305;-70
2024/01/30 05:01:33;;;;;;;12.23;4.17;;;;;;;;;;4979947;28;20223;-72
2024/01/30 05:03:59;;;;;;;8.60;4.40;;;;;;;;;;4979627;28;20238;-72
2024/01/30 05:06:25;;;;;;;12.13;4.73;;;;;;;;;;4978152;28;20314;-72
2024/01/30 05:08:50;;;;;;;11.30;4.50;;;;;;;;;;4960229;28;20270;-71
2024/01/30 05:11:16;;;;;;;8.90;4.10;;;;;;;;;;4981418;28;20255;-71
2024/01/30 05:13:41;;;;;;;10.27;3.83;;;;;;;;;;4979828;28;20835;-71
2024/01/30 05:16:06;;;;;;;7.27;4.10;;;;;;;;;;4981030;28;20729;-71
2024/01/30 05:18:32;;;;;;;8.73;4.07;;;;;;;;;;4975679;28;20232;-70
2024/01/30 05:20:57;;;;;;;9.70;4.70;;;;;;;;;;4982295;28;20223;-71
2024/01/30 05:23:22;;;;;;;12.50;4.73;;;;;;;;;;4979270;28;20226;-72
2024/01/30 05:25:48;;;;;;;10.60;4.37;;;;;;;;;;4980158;28;20230;-71
2024/01/30 05:28:13;;;;;;;13.50;4.70;;;;;;;;;;4979456;28;20242;-72
2024/01/30 05:30:39;;;;;;;11.10;4.73;;;;;;;;;;4997625;28;20234;-71
2024/01/30 05:33:04;;;;;;;15.53;4.87;;;;;;;;;;4980596;28;20286;-71
2024/01/30 05:35:29;;;;;;;10.90;4.60;;;;;;;;;;4980586;28;20232;-72
2024/01/30 05:37:55;;;;;;;14.33;4.47;;;;;;;;;;4960940;28;20270;-71
2024/01/30 05:40:20;;;;;;;11.63;4.43;;;;;;;;;;4979018;28;20289;-72
2024/01/30 05:42:45;;;;;;;13.77;4.47;;;;;;;;;;4977960;28;20232;-71
2024/01/30 05:45:11;;;;;;;8.77;4.50;;;;;;;;;;4986167;28;20220;-72
2024/01/30 05:47:36;;;;;;;9.90;4.60;;;;;;;;;;4979006;28;20235;-72
2024/01/30 05:50:05;;;;;;;15.53;4.97;;;;;;;;;;4982280;28;20259;-72
2024/01/30 05:52:30;;;;;;;10.23;4.50;;;;;;;;;;4978320;28;20227;-70
2024/01/30 05:54:55;;;;;;;13.57;5.27;;;;;;;;;;4981497;28;20290;-72
2024/01/30 05:57:21;;;;;;;11.83;4.93;;;;;;;;;;4976481;28;20239;-71
2024/01/30 05:59:47;;;;;;;10.27;4.90;;;;;;;;;;4978579;28;20297;-72
2024/01/30 06:02:13;;;;;;;13.73;4.70;;;;;;;;;;4976902;28;20232;-72
2024/01/30 06:04:38;;;;;;;15.60;5.50;;;;;;;;;;4974745;28;20260;-72
2024/01/30 06:07:05;;;;;;;12.23;4.87;;;;;;;;;;4979634;28;20302;-71
2024/01/30 06:09:31;;;;;;;12.80;5.00;;;;;;;;;;4981338;28;20244;-70
2024/01/30 06:11:56;;;;;;;15.07;4.83;;;;;;;;;;4982092;28;20613;-71
2024/01/30 06:14:22;;;;;;;14.23;4.60;;;;;;;;;;4982064;28;20314;-71
2024/01/30 06:16:47;;;;;;;14.80;5.40;;;;;;;;;;4970046;28;20319;-71
2024/01/30 06:19:12;;;;;;;14.17;5.03;;;;;;;;;;4997119;28;20612;-78
2024/01/30 06:21:38;;;;;;;16.67;5.30;;;;;;;;;;4986842;28;20223;-77
2024/01/30 06:24:03;;;;;;;14.20;5.37;;;;;;;;;;4972415;28;20222;-77
2024/01/30 06:26:29;;;;;;;14.97;5.70;;;;;;;;;;4985976;28;20235;-77
2024/01/30 06:28:54;;;;;;;25.77;6.63;;;;;;;;;;4972674;28;20239;-76
2024/01/30 06:31:19;;;;;;;14.60;5.90;;;;;;;;;;4981919;28;20226;-77
2024/01/30 06:33:47;;;;;;;17.87;6.67;;;;;;;;;;4980137;28;20248;-77
2024/01/30 06:36:13;;;;;;;17.63;6.40;;;;;;;;;;4983474;28;20231;-78
2024/01/30 06:38:39;;;;;;;18.60;6.43;;;;;;;;;;4981002;28;20278;-76
2024/01/30 06:41:04;;;;;;;15.07;6.63;;;;;;;;;;4965033;28;20926;-77
2024/01/30 06:43:30;;;;;;;24.80;7.00;;;;;;;;;;4989163;28;20566;-76
2024/01/30 06:45:55;;;;;;;22.67;7.60;;;;;;;;;;4980649;28;20649;-78
2024/01/30 06:48:20;;;;;;;21.33;8.30;;;;;;;;;;4981069;28;20235;-78
2024/01/30 06:50:46;;;;;;;19.57;7.10;;;;;;;;;;4989323;28;20242;-77
2024/01/30 06:53:11;;;;;;;23.83;9.40;;;;;;;;;;4985660;28;20232;-77
2024/01/30 06:55:36;;;;;;;15.87;6.50;;;;;;;;;;4981747;28;20238;-77
2024/01/30 06:58:02;;;;;;;18.97;6.27;;;;;;;;;;4997152;28;20228;-78
2024/01/30 07:00:27;;;;;;;18.57;6.10;;;;;;;;;;4979940;28;20235;-76
2024/01/30 07:02:53;;;;;;;12.90;5.03;;;;;;;;;;4984024;28;20240;-79
2024/01/30 07:05:18;;;;;;;16.17;6.63;;;;;;;;;;4982308;28;20591;-78
2024/01/30 07:07:43;;;;;;;13.43;6.30;;;;;;;;;;4984087;28;20223;-76
2024/01/30 07:10:09;;;;;;;14.90;6.10;;;;;;;;;;4982943;28;20232;-75
2024/01/30 07:12:34;;;;;;;16.50;6.63;;;;;;;;;;4980604;28;20230;-78
2024/01/30 07:14:59;;;;;;;13.27;5.07;;;;;;;;;;4980213;28;20248;-77
2024/01/30 07:17:25;;;;;;;11.60;4.63;;;;;;;;;;4978242;28;20243;-77
2024/01/30 07:19:50;;;;;;;12.13;5.17;;;;;;;;;;4978705;28;20231;-76
2024/01/30 07:22:15;;;;;;;11.37;4.10;;;;;;;;;;4980120;28;20240;-76
2024/01/30 07:24:49;;;;;;;9.43;4.33;;;;;;;;;;4985947;28;20235;-76
2024/01/30 07:27:14;;;;;;;9.93;4.53;;;;;;;;;;4981563;28;21010;-75
2024/01/30 07:29:39;;;;;;;9.70;3.97;;;;;;;;;;4984149;28;20235;-75
2024/01/30 07:32:05;;;;;;;12.13;4.30;;;;;;;;;;4984631;28;20231;-76
2024/01/30 07:34:30;;;;;;;7.63;4.13;;;;;;;;;;4985778;28;20255;-75
2024/01/30 07:36:56;;;;;;;10.97;4.07;;;;;;;;;;4980302;28;20257;-74
2024/01/30 07:39:21;;;;;;;7.03;3.60;;;;;;;;;;4961680;28;20327;-76
2024/01/30 07:41:47;;;;;;;7.10;3.40;;;;;;;;;;4997489;28;20242;-76
2024/01/30 07:44:12;;;;;;;6.17;3.80;;;;;;;;;;4979991;28;20232;-76
2024/01/30 07:46:37;;;;;;;9.37;3.70;;;;;;;;;;4978002;28;20610;-75
2024/01/30 07:49:03;;;;;;;5.07;3.10;;;;;;;;;;4984038;28;20326;-75
2024/01/30 07:51:29;;;;;;;7.53;3.50;;;;;;;;;;4983647;28;20290;-75
2024/01/30 07:53:54;;;;;;;5.70;3.27;;;;;;;;;;4981857;28;20225;-75
2024/01/30 07:56:20;;;;;;;5.93;3.33;;;;;;;;;;4982141;28;20231;-75
2024/01/30 07:58:45;;;;;;;6.10;3.40;;;;;;;;;;4976380;28;20316;-73
2024/01/30 08:01:10;;;;;;;8.40;4.20;;;;;;;;;;4978269;28;20277;-75
2024/01/30 08:03:36;;;;;;;6.80;3.63;;;;;;;;;;4980512;28;20234;-75
2024/01/30 08:06:02;;;;;;;9.10;3.47;;;;;;;;;;4982816;28;20224;-74
2024/01/30 08:08:28;;;;;;;8.20;3.57;;;;;;;;;;4997279;28;20283;-74
2024/01/30 08:10:53;;;;;;;7.57;4.00;;;;;;;;;;4982705;28;20231;-76
2024/01/30 08:13:18;;;;;;;8.53;4.00;;;;;;;;;;4962163;28;20236;-74
2024/01/30 08:15:44;;;;;;;8.77;3.80;;;;;;;;;;4966040;28;20231;-74
2024/01/30 08:18:09;;;;;;;8.17;3.97;;;;;;;;;;4994702;28;20239;-75
2024/01/30 08:20:34;;;;;;;7.80;3.70;;;;;;;;;;4979623;28;20223;-74
2024/01/30 08:23:00;;;;;;;7.67;4.00;;;;;;;;;;4993621;28;20235;-75
2024/01/30 08:25:25;;;;;;;9.67;4.10;;;;;;;;;;4994345;28;20223;-75
2024/01/30 08:27:51;;;;;;;7.43;3.60;;;;;;;;;;4983101;28;20246;-75
2024/01/30 08:30:16;;;;;;;12.57;3.87;;;;;;;;;;4979156;28;20362;-74
2024/01/30 08:32:42;;;;;;;8.57;3.97;;;;;;;;;;4980432;28;20998;-76
2024/01/30 08:35:08;;;;;;;7.47;4.03;;;;;;;;;;4981799;28;20223;-74
2024/01/30 08:37:33;;;;;;;8.60;4.00;;;;;;;;;;4966793;28;20282;-75
2024/01/30 08:40:03;;;;;;;10.47;4.30;;;;;;;;;;4980778;28;20228;-75
2024/01/30 08:42:28;;;;;;;12.50;5.37;;;;;;;;;;4976962;28;20243;-75
2024/01/30 08:44:54;;;;;;;8.50;4.30;;;;;;;;;;4979467;28;20227;-75
2024/01/30 08:47:19;;;;;;;9.67;4.40;;;;;;;;;;4975028;28;20223;-74
2024/01/30 08:49:44;;;;;;;7.37;4.20;;;;;;;;;;4979188;28;20349;-74
2024/01/30 08:52:10;;;;;;;7.43;3.83;;;;;;;;;;4962317;28;20228;-75
2024/01/30 08:54:36;;;;;;;8.50;4.00;;;;;;;;;;4963497;28;20270;-75
2024/01/30 08:57:01;;;;;;;6.33;3.37;;;;;;;;;;4977474;28;20231;-73
2024/01/30 08:59:27;;;;;;;9.97;3.47;;;;;;;;;;4979191;28;20232;-75
2024/01/30 09:01:54;;;;;;;12.30;4.00;;;;;;;;;;4966594;28;20285;-74
2024/01/30 09:04:20;;;;;;;8.67;3.90;;;;;;;;;;4969546;28;20215;-71
2024/01/30 09:06:46;;;;;;;8.90;4.47;;;;;;;;;;4981610;28;20611;-70
2024/01/30 09:09:11;;;;;;;9.97;4.83;;;;;;;;;;4978386;28;20234;-70
2024/01/30 09:11:36;;;;;;;12.00;4.90;;;;;;;;;;4976490;28;20227;-72
2024/01/30 09:14:02;;;;;;;12.33;4.90;;;;;;;;;;4991733;28;20327;-72
2024/01/30 09:16:28;;;;;;;7.13;3.60;;;;;;;;;;4976262;28;20254;-72
2024/01/30 09:18:53;;;;;;;8.90;4.43;;;;;;;;;;4980488;28;20230;-76
2024/01/30 09:21:19;;;;;;;9.27;4.10;;;;;;;;;;4978358;28;20231;-74
2024/01/30 09:23:44;;;;;;;7.97;4.10;;;;;;;;;;4979878;28;20891;-74
2024/01/30 09:26:09;;;;;;;7.27;3.73;;;;;;;;;;4979274;28;20215;-72
2024/01/30 09:28:35;;;;;;;8.33;3.40;;;;;;;;;;4980990;28;20236;-72
2024/01/30 09:31:01;;;;;;;6.23;3.03;;;;;;;;;;4996526;28;20232;-70
2024/01/30 09:33:26;;;;;;;6.63;3.47;;;;;;;;;;4979722;28;20236;-70
2024/01/30 09:35:51;;;;;;;6.47;3.27;;;;;;;;;;4980343;28;20562;-71
2024/01/30 09:38:17;;;;;;;7.83;3.53;;;;;;;;;;4976394;28;20307;-70
2024/01/30 09:40:42;;;;;;;5.90;3.23;;;;;;;;;;4981463;28;20313;-71
2024/01/30 09:43:07;;;;;;;6.43;3.57;;;;;;;;;;4983180;28;20227;-75
2024/01/30 09:45:33;;;;;;;6.27;3.70;;;;;;;;;;4983311;28;20231;-74
2024/01/30 09:47:59;;;;;;;6.40;3.20;;;;;;;;;;4965281;28;20227;-71
2024/01/30 09:50:24;;;;;;;6.13;3.40;;;;;;;;;;4979201;28;20274;-72
2024/01/30 09:52:49;;;;;;;6.77;3.70;;;;;;;;;;4984984;28;20227;-70
2024/01/30 09:55:15;;;;;;;8.87;3.57;;;;;;;;;;4984005;28;20227;-71
2024/01/30 09:57:41;;;;;;;8.67;3.93;;;;;;;;;;4981700;28;20235;-70
2024/01/30 10:00:08;;;;;;;5.87;3.77;;;;;;;;;;4986066;28;20258;-71
2024/01/30 10:02:34;;;;;;;6.60;3.33;;;;;;;;;;4983304;28;20227;-71
2024/01/30 10:04:59;;;;;;;6.73;3.60;;;;;;;;;;4982241;28;20309;-71
2024/01/30 10:07:24;;;;;;;7.10;3.83;;;;;;;;;;4980338;28;20232;-71
2024/01/30 10:09:50;;;;;;;6.07;3.50;;;;;;;;;;4984056;28;20239;-71
2024/01/30 10:12:15;;;;;;;6.83;3.63;;;;;;;;;;4984244;28;20251;-71
2024/01/30 10:14:41;;;;;;;6.27;3.17;;;;;;;;;;4984446;28;20259;-71
2024/01/30 10:17:09;;;;;;;5.13;2.80;;;;;;;;;;4981159;28;20772;-72
2024/01/30 10:19:35;;;;;;;6.13;3.00;;;;;;;;;;4978344;28;20772;-72
2024/01/30 10:22:01;;;;;;;5.93;3.47;;;;;;;;;;4976345;28;20858;-71
2024/01/30 10:24:26;;;;;;;5.57;3.23;;;;;;;;;;4984960;28;20220;-71
2024/01/30 10:26:51;;;;;;;6.03;3.50;;;;;;;;;;4965950;28;20319;-71
2024/01/30 10:29:17;;;;;;;6.03;3.37;;;;;;;;;;4985608;28;20240;-72
2024/01/30 10:31:42;;;;;;;7.43;3.40;;;;;;;;;;4969013;28;20227;-72
2024/01/30 10:34:08;;;;;;;6.40;3.57;;;;;;;;;;4985442;28;20258;-71
2024/01/30 10:36:33;;;;;;;7.27;3.20;;;;;;;;;;4981160;28;20318;-70
2024/01/30 10:38:59;;;;;;;6.00;3.20;;;;;;;;;;4983678;28;20227;-70
2024/01/30 10:41:27;;;;;;;5.63;3.10;;;;;;;;;;4969141;28;20277;-72
2024/01/30 10:44:02;;;;;;;7.90;3.57;;;;;;;;;;4982477;28;20249;-70
2024/01/30 10:46:29;;;;;;;4.43;2.90;;;;;;;;;;4981875;28;20277;-70
2024/01/30 10:48:58;;;;;;;4.60;2.90;;;;;;;;;;4966587;28;20239;-71
2024/01/30 10:51:24;;;;;;;5.03;3.10;;;;;;;;;;4980385;28;20227;-71
2024/01/30 10:53:50;;;;;;;4.67;2.63;;;;;;;;;;4977976;28;20239;-72
2024/01/30 10:56:15;;;;;;;6.57;2.83;;;;;;;;;;4982117;28;20223;-74
2024/01/30 10:58:41;;;;;;;5.07;2.67;;;;;;;;;;4965600;28;20232;-74
2024/01/30 11:01:06;;;;;;;5.60;2.83;;;;;;;;;;4984067;28;20227;-76
2024/01/30 11:03:34;;;;;;;5.70;3.03;;;;;;;;;;4975371;28;20242;-75
2024/01/30 11:05:59;;;;;;;4.57;2.80;;;;;;;;;;4979259;28;20319;-75
2024/01/30 11:08:25;;;;;;;4.50;2.90;;;;;;;;;;4980331;28;20231;-75
2024/01/30 11:10:55;;;;;;;5.07;3.00;;;;;;;;;;4981544;28;20678;-76
2024/01/30 11:13:20;;;;;;;6.83;3.20;;;;;;;;;;4979271;28;20223;-75
2024/01/30 11:15:47;;;;;;;4.47;2.77;;;;;;;;;;4982951;28;20220;-76
2024/01/30 11:18:12;;;;;;;10.03;3.30;;;;;;;;;;4986773;28;20240;-75
2024/01/30 11:20:45;;;;;;;6.57;3.20;;;;;;;;;;4980114;28;20239;-75
2024/01/30 11:23:10;;;;;;;6.40;3.30;;;;;;;;;;4977405;28;20319;-75
2024/01/30 11:25:35;;;;;;;6.00;3.30;;;;;;;;;;4963658;28;20339;-75
2024/01/30 11:28:01;;;;;;;5.83;3.00;;;;;;;;;;4978100;28;20234;-75
2024/01/30 11:30:27;;;;;;;7.23;3.70;;;;;;;;;;4964319;28;20424;-75
2024/01/30 11:33:05;;;;;;;5.67;3.13;;;;;;;;;;4984671;28;20231;-74
2024/01/30 11:35:38;;;;;;;8.03;2.93;;;;;;;;;;4984875;28;20368;-75
2024/01/30 11:38:04;;;;;;;4.17;2.83;;;;;;;;;;4986407;28;20667;-74
2024/01/30 11:40:29;;;;;;;6.23;3.10;;;;;;;;;;4980847;28;20227;-76
2024/01/30 11:42:59;;;;;;;4.67;2.90;;;;;;;;;;4972928;28;20255;-74
2024/01/30 11:45:24;;;;;;;7.50;3.33;;;;;;;;;;4983200;28;20230;-74
2024/01/30 11:47:49;;;;;;;5.40;3.00;;;;;;;;;;4978064;28;20227;-75
2024/01/30 11:50:15;;;;;;;8.93;3.33;;;;;;;;;;4981287;28;20277;-75
2024/01/30 11:52:40;;;;;;;6.97;3.20;;;;;;;;;;4987080;28;20314;-75
2024/01/30 11:55:06;;;;;;;6.20;3.20;;;;;;;;;;4997262;28;20719;-75
2024/01/30 11:57:31;;;;;;;7.33;3.20;;;;;;;;;;4967750;28;20223;-72
2024/01/30 11:59:57;;;;;;;6.00;3.27;;;;;;;;;;4979955;28;20231;-73
2024/01/30 12:02:22;;;;;;;10.63;3.30;;;;;;;;;;4984834;28;20223;-72
2024/01/30 12:04:47;;;;;;;7.20;3.37;;;;;;;;;;4979514;28;20220;-70
2024/01/30 12:07:15;;;;;;;6.37;3.73;;;;;;;;;;4981077;28;20223;-71
2024/01/30 12:09:41;;;;;;;20.60;8.50;;;;;;;;;;4981630;28;20235;-72
2024/01/30 12:12:07;;;;;;;36.93;16.63;;;;;;;;;;4966118;28;20436;-72
2024/01/30 12:14:32;;;;;;;6.80;3.47;;;;;;;;;;4979830;28;20231;-72
2024/01/30 12:16:58;;;;;;;8.57;4.40;;;;;;;;;;4980700;28;20235;-71
2024/01/30 12:19:23;;;;;;;22.40;8.87;;;;;;;;;;4979221;28;20239;-70
2024/01/30 12:21:56;;;;;;;12.73;5.80;;;;;;;;;;4981520;28;20713;-71
2024/01/30 12:24:22;;;;;;;25.20;9.00;;;;;;;;;;4966015;28;20323;-71
2024/01/30 12:26:47;;;;;;;14.23;6.20;;;;;;;;;;4979576;28;20303;-72
2024/01/30 12:29:14;;;;;;;9.80;4.70;;;;;;;;;;4978971;28;20232;-72
2024/01/30 12:31:39;;;;;;;14.47;7.03;;;;;;;;;;4985705;28;20246;-71
2024/01/30 12:34:05;;;;;;;29.83;12.13;;;;;;;;;;4980987;28;20227;-71
2024/01/30 12:36:31;;;;;;;5.63;3.43;;;;;;;;;;4982917;28;20231;-71
2024/01/30 12:38:56;;;;;;;6.03;3.20;;;;;;;;;;4979975;28;20322;-72
2024/01/30 12:41:22;;;;;;;6.83;3.33;;;;;;;;;;4970130;28;20231;-72
2024/01/30 12:43:47;;;;;;;9.63;3.70;;;;;;;;;;4982312;28;20224;-72
2024/01/30 12:46:13;;;;;;;7.63;3.70;;;;;;;;;;4964016;28;20228;-71
2024/01/30 12:48:38;;;;;;;16.23;7.47;;;;;;;;;;4978825;28;20390;-71
2024/01/30 12:51:04;;;;;;;17.40;8.03;;;;;;;;;;4979224;28;20223;-71
2024/01/30 12:53:29;;;;;;;6.53;3.40;;;;;;;;;;4983596;28;21030;-72
2024/01/30 12:55:54;;;;;;;30.10;11.50;;;;;;;;;;4981502;28;20215;-71
2024/01/30 12:58:20;;;;;;;9.90;4.80;;;;;;;;;;4986980;28;20227;-71
2024/01/30 13:00:47;;;;;;;6.87;3.53;;;;;;;;;;4992828;28;20227;-71
2024/01/30 13:03:12;;;;;;;6.63;3.67;;;;;;;;;;4985752;28;20737;-72
2024/01/30 13:05:37;;;;;;;19.03;8.97;;;;;;;;;;4978662;28;20258;-72
2024/01/30 13:08:03;;;;;;;16.20;7.73;;;;;;;;;;4981382;28;20724;-71
2024/01/30 13:10:28;;;;;;;7.50;3.57;;;;;;;;;;4979778;28;21264;-71
2024/01/30 13:12:53;;;;;;;6.43;3.70;;;;;;;;;;4979605;28;20231;-71
2024/01/30 13:15:19;;;;;;;6.80;4.00;;;;;;;;;;4979163;28;20223;-71
2024/01/30 13:17:47;;;;;;;6.20;3.60;;;;;;;;;;4980166;28;20261;-71
2024/01/30 13:20:14;;;;;;;34.20;14.40;;;;;;;;;;4989142;28;20223;-71
2024/01/30 13:22:39;;;;;;;18.90;8.30;;;;;;;;;;4980460;28;20224;-72
2024/01/30 13:25:05;;;;;;;8.03;4.00;;;;;;;;;;4984597;28;20284;-72
2024/01/30 13:27:30;;;;;;;5.87;3.97;;;;;;;;;;4981807;28;20330;-71
2024/01/30 13:29:55;;;;;;;6.47;3.73;;;;;;;;;;4985337;28;20243;-72
2024/01/30 13:32:21;;;;;;;6.63;3.63;;;;;;;;;;4981483;28;20306;-71
2024/01/30 13:34:46;;;;;;;7.03;3.90;;;;;;;;;;4970742;28;20231;-71
2024/01/30 13:37:11;;;;;;;7.13;3.77;;;;;;;;;;4978169;28;20312;-72
2024/01/30 13:39:37;;;;;;;8.33;3.93;;;;;;;;;;4984223;28;20719;-71
2024/01/30 13:42:02;;;;;;;8.00;4.27;;;;;;;;;;4985252;28;20238;-75
2024/01/30 13:44:28;;;;;;;9.00;4.80;;;;;;;;;;4989166;28;20668;-76
2024/01/30 13:46:54;;;;;;;8.60;4.60;;;;;;;;;;4964964;28;20318;-76
2024/01/30 13:49:20;;;;;;;11.10;4.47;;;;;;;;;;4972029;28;20235;-75
2024/01/30 13:51:45;;;;;;;9.63;5.73;;;;;;;;;;4982576;28;20915;-76
2024/01/30 13:54:10;;;;;;;10.43;6.23;;;;;;;;;;4981999;28;20664;-75
2024/01/30 13:56:36;;;;;;;7.80;3.83;;;;;;;;;;4982015;28;20243;-75
2024/01/30 13:59:04;;;;;;;8.73;4.53;;;;;;;;;;4985927;28;20227;-76
2024/01/30 14:01:30;;;;;;;9.90;4.50;;;;;;;;;;4984728;28;20238;-74
2024/01/30 14:03:55;;;;;;;7.80;4.30;;;;;;;;;;4983477;28;20232;-75
2024/01/30 14:06:20;;;;;;;9.30;4.60;;;;;;;;;;4983415;28;20258;-75
2024/01/30 14:08:46;;;;;;;7.43;3.87;;;;;;;;;;4970240;28;20238;-76
2024/01/30 14:11:11;;;;;;;9.77;4.20;;;;;;;;;;4978329;28;20613;-75
2024/01/30 14:13:37;;;;;;;9.67;5.53;;;;;;;;;;4975216;28;20334;-76
2024/01/30 14:16:02;;;;;;;10.37;4.60;;;;;;;;;;4985359;28;20266;-76
2024/01/30 14:18:27;;;;;;;8.60;4.33;;;;;;;;;;4996282;28;20238;-74
2024/01/30 14:20:54;;;;;;;8.80;4.60;;;;;;;;;;4969057;28;20314;-75
2024/01/30 14:23:19;;;;;;;11.10;4.87;;;;;;;;;;4984402;28;20695;-76
2024/01/30 14:25:44;;;;;;;9.07;4.73;;;;;;;;;;4972571;28;20321;-75
2024/01/30 14:28:10;;;;;;;8.63;4.40;;;;;;;;;;4982682;28;20322;-75